Emelle, Alabama
Current Conditions -  °F | °C
As of 8:56 AM on Wednesday 22 Oct 2014 (Local Time) from KNMM Reporting Station
Clear Clear  
Wind Chill: 14°   Ceiling: Unl
Heat Index: 14°   Visibility: 10mi
Dew Point: 10°   Wind: 6mph
Humidity: 77%   Direction: 50°NE
Pressure: 30.17"   Gusts: NA
Location:  32.73°N, 88.31°W
Report Text: KNMM 221356Z 05005KT 10SM CLR 14/10 A3017 RMK AO2 SLP226 T01390100 $
Loading
Personal Weather Stations






























Interactive Weather Map
Tropical Storm Tracking
New forecast layout! Learn more

10-Day Weather Forecast

Advertisements
Track Severe Weather on mobile